Flight Track Log - Related Links

Times and Time Zones

All times are in EDT time to prevent confusion due to time zone crossing. See the N28KP flight status page for this flight to view local times or setup timezone preferences in your user account.

Time Position Orientation Groundspeed Altitude Reporting Facility
EDT Latitude Longitude Course Direction KTS MPH feet Rate Location/Type
Tue 04:29:00 PM 46.2146 -112.2940 41° Northeast  Level Estimated
Tue 04:30:00 PM 46.2619 -112.2738 17° North  Level FlightAware Approximate
Tue 04:31:00 PM 46.3091 -112.2535 17° North  Level FlightAware Approximate
Tue 04:32:00 PM 46.3564 -112.2332 17° North  Level FlightAware Approximate
Tue 04:33:00 PM 46.3970 -112.1927 44° Northeast  Level Estimated
Tue 04:34:00 PM 46.4370 -112.1511 36° Northeast  Level FlightAware Approximate
Tue 04:35:00 PM 46.4771 -112.1094 36° Northeast  Level FlightAware Approximate
Tue 04:36:00 PM 46.5180 -112.0695 North  Level Estimated
Tue 04:37:00 PM 46.5589 -112.0296 54° Northeast  Level Estimated
Tue 04:38:00 PM 46.5998 -111.9896 54° Northeast  Level Estimated
Tue 04:39:00 PM 46.6068 -111.9827 54° Northeast  Level Estimated
Tue 04:40:00 PM 46.6068 -111.9827 54° Northeast  Level Estimated
Tue 04:41:00 PM 46.6068 -111.9827 54° Northeast  Level Estimated
Tue 04:42:00 PM 46.6068 -111.9827 54° Northeast  Level Estimated
Tue 04:43:00 PM 46.6068 -111.9827 54° Northeast  Level Estimated
Tue 04:44:00 PM 46.6068 -111.9827 54° Northeast  Level Estimated
Tue 04:45:00 PM 46.6068 -111.9827 54° Northeast  Level Estimated
Tue 04:46:00 PM 46.6068 -111.9827 54° Northeast  Level Estimated
Tue 04:47:00 PM 46.6068 -111.9827 54° Northeast  Level Estimated
Tue 04:48:00 PM 46.6068 -111.9827 54° Northeast  Level Estimated
Tue 04:49:00 PM 46.6068 -111.9827 54° Northeast  Level Estimated
Tue 04:50:00 PM 46.6068 -111.9827 54° Northeast  Level Estimated
Tue 04:51:00 PM 46.6068 -111.9827 54° Northeast  Level Estimated
Tue 04:52:00 PM 46.6068 -111.9827 54° Northeast  Level Estimated
Tue 04:53:00 PM 46.6068 -111.9827 54° Northeast  Level Estimated
Tue 04:54:00 PM 46.6068 -111.9827 54° Northeast  Level Estimated
Tue 04:55:00 PM 46.6068 -111.9827 54° Northeast  Level Estimated
Tue 04:56:00 PM 46.6068 -111.9827 54° Northeast  Level Estimated
Tue 04:57:00 PM 46.6068 -111.9827 54° Northeast  Level Estimated
Tue 04:58:00 PM 46.6068 -111.9827 54° Northeast  Level Estimated

Login

Don't have an account? Register now (free) for customized features, flight alerts, and more!